Time;durP1;ratioP1;P1;durP2;ratioP2;P2;SDS_P1;SDS_P2;PMS_P1;PMS_P2;Temp;Humidity;BMP_temperature;BMP_pressure;BME280_temperature;BME280_humidity;BME280_pressure;Samples;Min_cycle;Max_cycle;Signal;HPM_P1;HPM_P2
2022/06/29 00:00:22;;;;;;;3.20;2.60;;;17.10;59.20;;;;;;5065723;28;20970;-62
2022/06/29 00:02:50;;;;;;;3.73;2.73;;;17.10;59.60;;;;;;5071694;28;20474;-62
2022/06/29 00:05:20;;;;;;;8.30;2.70;;;17.10;59.90;;;;;;5065900;28;20512;-62
2022/06/29 00:07:48;;;;;;;3.40;2.60;;;17.00;60.10;;;;;;5066261;28;20549;-62
2022/06/29 00:10:17;;;;;;;4.97;2.80;;;17.10;60.50;;;;;;5067221;28;20458;-62
2022/06/29 00:12:46;;;;;;;5.10;2.80;;;17.00;60.70;;;;;;5055096;28;20835;-63
2022/06/29 00:15:14;;;;;;;3.80;3.20;;;16.90;60.80;;;;;;5071657;28;20481;-61
2022/06/29 00:17:42;;;;;;;5.97;3.30;;;16.90;61.30;;;;;;5057582;28;20472;-62
2022/06/29 00:20:12;;;;;;;7.00;2.73;;;16.90;61.60;;;;;;5068045;28;20469;-62
2022/06/29 00:22:40;;;;;;;4.10;2.83;;;16.90;61.90;;;;;;5060901;28;20495;-62
2022/06/29 00:25:08;;;;;;;3.50;2.70;;;16.80;62.10;;;;;;5053861;28;20479;-63
2022/06/29 00:27:38;;;;;;;3.13;2.60;;;16.80;62.40;;;;;;5057510;28;20431;-63
2022/06/29 00:30:07;;;;;;;3.20;2.93;;;16.80;62.70;;;;;;5076704;28;20448;-63
2022/06/29 00:32:34;;;;;;;3.63;3.30;;;16.70;62.90;;;;;;5075299;28;20932;-63
2022/06/29 00:35:02;;;;;;;4.20;3.77;;;16.70;63.20;;;;;;5065689;28;20489;-63
2022/06/29 00:37:30;;;;;;;2.53;2.30;;;16.70;63.40;;;;;;5069849;28;20464;-63
2022/06/29 00:39:57;;;;;;;4.70;3.37;;;16.70;63.50;;;;;;5082673;28;20461;-63
2022/06/29 00:42:25;;;;;;;5.87;2.30;;;16.70;63.70;;;;;;5065335;28;20477;-63
2022/06/29 00:44:54;;;;;;;5.83;3.37;;;16.70;63.90;;;;;;5077561;28;20912;-63
2022/06/29 00:47:22;;;;;;;4.13;2.97;;;16.70;64.00;;;;;;5077806;28;20933;-63
2022/06/29 00:49:49;;;;;;;3.20;2.90;;;16.70;64.20;;;;;;5075627;28;20523;-63
2022/06/29 00:52:20;;;;;;;3.10;2.80;;;16.70;64.20;;;;;;5075405;28;20461;-62
2022/06/29 00:54:54;;;;;;;2.40;2.20;;;16.60;64.20;;;;;;5063711;28;20520;-62
2022/06/29 00:57:23;;;;;;;5.80;2.80;;;16.60;64.60;;;;;;5071830;28;20560;-62
2022/06/29 00:59:54;;;;;;;3.60;2.50;;;16.50;64.80;;;;;;5066785;28;20464;-62
2022/06/29 01:02:23;;;;;;;3.57;3.00;;;16.50;65.10;;;;;;5069251;28;20457;-62
2022/06/29 01:04:51;;;;;;;5.70;3.07;;;16.40;65.20;;;;;;5055149;28;20473;-62
2022/06/29 01:07:20;;;;;;;2.70;2.50;;;16.40;65.70;;;;;;5066556;28;20550;-63
2022/06/29 01:09:48;;;;;;;2.93;2.50;;;16.40;65.90;;;;;;5074990;28;20517;-62
2022/06/29 01:12:15;;;;;;;4.43;2.90;;;16.30;66.10;;;;;;5070650;28;20461;-62
2022/06/29 01:14:43;;;;;;;3.23;2.93;;;16.30;66.30;;;;;;5060989;28;20558;-62
2022/06/29 01:17:13;;;;;;;3.03;2.70;;;16.20;66.60;;;;;;5062648;28;20510;-62
2022/06/29 01:19:41;;;;;;;3.00;2.27;;;16.20;67.10;;;;;;5059503;28;20468;-62
2022/06/29 01:22:12;;;;;;;2.53;2.33;;;16.20;67.50;;;;;;5060181;28;20555;-62
2022/06/29 01:24:40;;;;;;;2.63;2.20;;;16.10;68.50;;;;;;5068769;28;20499;-62
2022/06/29 01:27:07;;;;;;;5.90;2.67;;;16.10;68.20;;;;;;5074774;28;20807;-63
2022/06/29 01:29:34;;;;;;;3.70;2.80;;;16.00;68.60;;;;;;5074086;28;21014;-63
2022/06/29 01:32:02;;;;;;;2.90;2.37;;;16.00;68.90;;;;;;5067578;28;20547;-63
2022/06/29 01:34:31;;;;;;;5.60;2.93;;;15.90;69.30;;;;;;5073220;28;20915;-63
2022/06/29 01:37:00;;;;;;;3.27;2.87;;;15.80;69.70;;;;;;5075014;28;20481;-63
2022/06/29 01:39:29;;;;;;;3.07;2.83;;;15.80;70.20;;;;;;5074639;28;20523;-63
2022/06/29 01:41:57;;;;;;;3.67;2.40;;;15.80;70.70;;;;;;5073641;28;20547;-62
2022/06/29 01:44:24;;;;;;;2.83;2.47;;;15.70;71.10;;;;;;5039489;28;20500;-62
2022/06/29 01:46:51;;;;;;;3.63;2.70;;;15.70;71.70;;;;;;5074234;28;20492;-62
2022/06/29 01:49:19;;;;;;;4.13;2.47;;;15.70;72.10;;;;;;5075520;28;20907;-62
2022/06/29 01:51:46;;;;;;;3.27;2.67;;;15.60;72.50;;;;;;5073420;28;20513;-62
2022/06/29 01:54:13;;;;;;;3.90;2.90;;;15.60;72.90;;;;;;5073880;28;20504;-62
2022/06/29 01:56:42;;;;;;;3.00;2.73;;;15.60;73.40;;;;;;5075280;28;20467;-62
2022/06/29 01:59:10;;;;;;;3.57;3.27;;;15.60;73.80;;;;;;5065266;28;20519;-62
2022/06/29 02:01:37;;;;;;;3.60;2.87;;;15.60;74.20;;;;;;5073133;28;20491;-62
2022/06/29 02:04:04;;;;;;;3.50;2.53;;;15.60;74.20;;;;;;5073984;28;21001;-62
2022/06/29 02:06:32;;;;;;;5.40;3.00;;;15.60;74.30;;;;;;5072538;28;20479;-62
2022/06/29 02:08:59;;;;;;;5.30;3.07;;;15.60;74.30;;;;;;5074032;28;20494;-62
2022/06/29 02:11:26;;;;;;;2.53;2.33;;;15.60;74.60;;;;;;5074145;28;20495;-62
2022/06/29 02:13:55;;;;;;;3.43;2.90;;;15.60;74.80;;;;;;5075779;28;20526;-62
2022/06/29 02:16:23;;;;;;;4.07;3.23;;;15.50;75.10;;;;;;5069920;28;20531;-62
2022/06/29 02:18:50;;;;;;;5.00;3.00;;;15.50;75.40;;;;;;5055242;28;20482;-62
2022/06/29 02:21:17;;;;;;;5.63;3.07;;;15.50;75.80;;;;;;5062610;28;20456;-62
2022/06/29 02:23:45;;;;;;;3.43;3.13;;;15.50;76.10;;;;;;5073213;28;20533;-62
2022/06/29 02:26:12;;;;;;;4.80;3.10;;;15.40;76.30;;;;;;5069717;28;20489;-62
2022/06/29 02:28:39;;;;;;;3.40;2.93;;;15.40;76.70;;;;;;5072547;28;20546;-62
2022/06/29 02:36:34;;;;;;;4.03;3.00;;;15.40;77.20;;;;;;5060695;28;21001;-62
2022/06/29 02:39:01;;;;;;;3.40;3.10;;;15.50;77.40;;;;;;5060652;28;20975;-62
2022/06/29 02:41:29;;;;;;;4.30;3.23;;;15.50;77.30;;;;;;5072717;28;20465;-63
2022/06/29 02:43:56;;;;;;;4.53;3.60;;;15.50;78.30;;;;;;5074345;28;20447;-62
2022/06/29 02:46:25;;;;;;;4.10;3.53;;;15.50;77.60;;;;;;5071964;28;20540;-62
2022/06/29 02:48:52;;;;;;;3.40;3.03;;;15.50;77.60;;;;;;5072188;28;21019;-62
2022/06/29 02:51:19;;;;;;;6.13;3.67;;;15.50;77.60;;;;;;5068570;28;21067;-62
2022/06/29 02:53:46;;;;;;;4.47;3.70;;;15.60;77.70;;;;;;5054212;28;20495;-62
2022/06/29 02:56:14;;;;;;;4.30;3.40;;;15.60;78.00;;;;;;5068432;28;20515;-63
2022/06/29 02:58:41;;;;;;;4.10;3.40;;;15.60;78.20;;;;;;5053525;28;20480;-62
2022/06/29 03:01:08;;;;;;;5.30;3.70;;;15.60;78.60;;;;;;5068771;28;20459;-63
2022/06/29 03:03:37;;;;;;;4.03;3.63;;;15.60;79.00;;;;;;5047744;28;20954;-62
2022/06/29 03:06:04;;;;;;;3.47;3.00;;;15.50;79.20;;;;;;5056640;28;20488;-62
2022/06/29 03:08:32;;;;;;;3.50;3.20;;;15.50;79.60;;;;;;5065528;28;20456;-62
2022/06/29 03:10:59;;;;;;;4.10;3.30;;;15.60;80.00;;;;;;5075336;28;20470;-62
2022/06/29 03:13:26;;;;;;;3.73;3.40;;;15.60;80.30;;;;;;5075264;28;20471;-62
2022/06/29 03:15:53;;;;;;;4.30;3.40;;;15.50;80.50;;;;;;5072808;28;20487;-62
2022/06/29 03:18:21;;;;;;;4.30;3.70;;;15.50;80.80;;;;;;5052259;28;20567;-62
2022/06/29 03:20:49;;;;;;;9.90;4.80;;;15.50;81.20;;;;;;5065986;28;20491;-63
2022/06/29 03:23:17;;;;;;;5.07;3.67;;;15.50;81.50;;;;;;5054590;28;20468;-63
2022/06/29 03:25:44;;;;;;;4.20;3.43;;;15.60;82.00;;;;;;5053337;28;20581;-63
2022/06/29 03:28:11;;;;;;;5.50;3.77;;;15.60;82.30;;;;;;5052768;28;20539;-62
2022/06/29 03:30:38;;;;;;;5.50;3.80;;;15.50;82.40;;;;;;5058639;28;20990;-63
2022/06/29 03:33:05;;;;;;;5.00;3.90;;;15.60;82.70;;;;;;5062311;28;20905;-63
2022/06/29 03:35:33;;;;;;;6.30;4.10;;;15.60;82.80;;;;;;5066942;28;20483;-62
2022/06/29 03:38:01;;;;;;;4.83;4.30;;;15.60;83.00;;;;;;5067592;28;20554;-63
2022/06/29 03:40:29;;;;;;;4.37;3.57;;;15.60;83.00;;;;;;5058689;28;20944;-63
2022/06/29 03:42:56;;;;;;;5.50;4.03;;;15.60;83.10;;;;;;5073253;28;20444;-63
2022/06/29 03:45:24;;;;;;;5.00;3.90;;;15.70;83.20;;;;;;5071839;28;20482;-63
2022/06/29 03:47:51;;;;;;;3.97;3.67;;;15.70;83.20;;;;;;5071855;28;20489;-63
2022/06/29 03:50:19;;;;;;;4.50;4.10;;;15.70;83.20;;;;;;5071999;28;20512;-62
2022/06/29 03:52:46;;;;;;;3.77;3.40;;;15.80;83.20;;;;;;5057822;28;20460;-62
2022/06/29 03:55:15;;;;;;;9.60;4.43;;;15.90;83.30;;;;;;5066901;28;20982;-63
2022/06/29 03:57:42;;;;;;;6.00;3.90;;;16.20;83.80;;;;;;5072326;28;20455;-63
2022/06/29 04:00:11;;;;;;;7.07;3.40;;;16.70;81.20;;;;;;5062252;28;20456;-60
2022/06/29 04:02:38;;;;;;;6.20;3.57;;;17.20;78.40;;;;;;5055674;28;20449;-63
2022/06/29 04:05:06;;;;;;;3.50;3.17;;;17.70;76.20;;;;;;5059386;28;20472;-63
2022/06/29 04:09:59;;;;;;;4.13;3.73;;;18.30;71.40;;;;;;5107191;27;20987;-62
2022/06/29 04:12:28;;;;;;;4.23;3.20;;;18.50;70.20;;;;;;5115731;28;20865;-62
2022/06/29 04:14:55;;;;;;;4.20;3.80;;;18.60;69.20;;;;;;5113929;28;20508;-62
2022/06/29 04:17:23;;;;;;;8.70;3.83;;;18.80;68.30;;;;;;5085542;28;20511;-62
2022/06/29 04:19:52;;;;;;;4.50;3.53;;;19.10;66.80;;;;;;5065413;28;20456;-63
2022/06/29 04:22:19;;;;;;;6.70;3.40;;;19.40;65.40;;;;;;5088529;28;20444;-62
2022/06/29 04:24:46;;;;;;;4.97;2.90;;;19.80;63.70;;;;;;5071322;28;20572;-63
2022/06/29 04:27:15;;;;;;;5.90;3.50;;;20.10;61.90;;;;;;5069444;28;20455;-62
2022/06/29 04:29:43;;;;;;;4.73;3.47;;;20.20;60.90;;;;;;5087220;28;20530;-62
2022/06/29 04:32:10;;;;;;;8.60;3.73;;;20.10;60.50;;;;;;5090353;28;20442;-61
2022/06/29 04:34:38;;;;;;;3.20;2.67;;;20.10;60.30;;;;;;5090461;28;20492;-62
2022/06/29 04:37:05;;;;;;;3.50;2.63;;;20.10;59.80;;;;;;5090375;28;20448;-62
2022/06/29 04:39:32;;;;;;;4.43;3.03;;;20.30;59.30;;;;;;5090422;28;20859;-62
2022/06/29 04:42:00;;;;;;;4.07;3.67;;;20.40;59.10;;;;;;5090711;28;20500;-62
2022/06/29 04:44:28;;;;;;;4.60;3.30;;;20.60;58.40;;;;;;5071113;28;20549;-64
2022/06/29 04:46:56;;;;;;;4.43;2.70;;;21.00;57.80;;;;;;5060747;28;20470;-62
2022/06/29 04:49:24;;;;;;;10.80;3.80;;;21.30;56.80;;;;;;5069224;28;20524;-61
2022/06/29 04:51:51;;;;;;;3.40;3.10;;;21.50;56.10;;;;;;5069131;28;20438;-62
2022/06/29 04:54:18;;;;;;;3.67;3.30;;;21.60;55.50;;;;;;5066742;28;20804;-63
2022/06/29 04:56:46;;;;;;;3.47;3.17;;;21.80;55.00;;;;;;5067468;28;20524;-63
2022/06/29 04:59:15;;;;;;;4.43;3.00;;;21.90;54.60;;;;;;5069001;28;20443;-62
2022/06/29 05:01:47;;;;;;;4.30;3.50;;;22.00;54.10;;;;;;5069208;28;20479;-63
2022/06/29 05:04:14;;;;;;;3.90;3.10;;;22.10;54.20;;;;;;5068979;28;20439;-62
2022/06/29 05:06:42;;;;;;;4.63;3.13;;;22.20;53.30;;;;;;5065136;28;20503;-63
2022/06/29 05:09:09;;;;;;;5.00;3.10;;;22.10;53.10;;;;;;5066666;28;20532;-63
2022/06/29 05:11:36;;;;;;;3.60;2.83;;;22.00;52.90;;;;;;5069112;28;20498;-62
2022/06/29 05:14:04;;;;;;;7.37;4.10;;;21.90;53.10;;;;;;5068414;28;20504;-63
2022/06/29 05:16:31;;;;;;;6.83;3.20;;;22.00;53.20;;;;;;5068405;28;20463;-62
2022/06/29 05:19:00;;;;;;;4.60;3.40;;;22.20;52.90;;;;;;5068449;28;20446;-62
2022/06/29 05:21:27;;;;;;;3.90;3.13;;;22.40;52.40;;;;;;5054979;28;20452;-63
2022/06/29 05:23:55;;;;;;;7.03;3.57;;;22.40;52.00;;;;;;5055607;28;20449;-62
2022/06/29 05:26:22;;;;;;;3.73;3.20;;;22.40;52.00;;;;;;5055688;28;20468;-62
2022/06/29 05:28:50;;;;;;;5.73;3.60;;;22.50;51.70;;;;;;5055602;28;20886;-63
2022/06/29 05:31:18;;;;;;;4.73;3.00;;;22.70;51.30;;;;;;5055695;28;20447;-63
2022/06/29 05:33:46;;;;;;;4.87;3.00;;;22.70;50.90;;;;;;5055435;28;20475;-64
2022/06/29 05:36:15;;;;;;;4.10;2.67;;;22.60;50.70;;;;;;5055139;28;20464;-61
2022/06/29 05:38:42;;;;;;;4.57;2.97;;;22.60;50.70;;;;;;5055312;28;20932;-64
2022/06/29 05:41:09;;;;;;;5.20;2.50;;;22.50;50.70;;;;;;5055579;28;20458;-65
2022/06/29 05:43:37;;;;;;;4.70;2.60;;;22.50;50.70;;;;;;5055285;28;20474;-64
2022/06/29 05:46:04;;;;;;;3.87;2.90;;;22.70;50.40;;;;;;5055138;28;20467;-64
2022/06/29 05:48:32;;;;;;;4.20;2.90;;;23.00;49.90;;;;;;5054970;28;20487;-63
2022/06/29 05:50:59;;;;;;;4.90;3.03;;;23.10;49.50;;;;;;5055160;28;20447;-62
2022/06/29 05:53:28;;;;;;;7.67;3.20;;;23.40;49.30;;;;;;5055184;28;20448;-62
2022/06/29 05:55:55;;;;;;;3.77;3.10;;;23.70;48.90;;;;;;5057151;28;20541;-63
2022/06/29 05:58:23;;;;;;;3.80;3.40;;;23.90;48.40;;;;;;5070988;28;20485;-63
2022/06/29 06:00:50;;;;;;;3.23;2.60;;;24.10;48.00;;;;;;5074169;28;20493;-63
2022/06/29 06:03:18;;;;;;;3.60;2.97;;;24.20;47.60;;;;;;5075233;28;20513;-64
2022/06/29 06:05:46;;;;;;;3.10;2.80;;;24.10;47.50;;;;;;5074621;28;20545;-63
2022/06/29 06:08:15;;;;;;;5.10;3.20;;;24.10;47.40;;;;;;5073912;28;20471;-62
2022/06/29 06:10:43;;;;;;;3.40;3.10;;;23.90;47.30;;;;;;5074533;28;20447;-63
2022/06/29 06:13:11;;;;;;;4.37;3.00;;;23.80;47.40;;;;;;5075557;28;20447;-62
2022/06/29 06:15:38;;;;;;;3.33;3.03;;;23.60;47.40;;;;;;5072307;28;20487;-61
2022/06/29 06:18:06;;;;;;;3.90;3.50;;;23.30;47.70;;;;;;5074153;28;20443;-62
2022/06/29 06:20:33;;;;;;;4.53;3.13;;;23.20;48.20;;;;;;5074181;28;20474;-63
2022/06/29 06:23:00;;;;;;;4.07;3.67;;;23.00;48.40;;;;;;5074235;28;20492;-62
2022/06/29 06:25:27;;;;;;;4.40;3.37;;;23.00;48.60;;;;;;5074286;28;20550;-62
2022/06/29 06:27:56;;;;;;;5.70;3.53;;;23.10;48.70;;;;;;5074887;28;20520;-62
2022/06/29 06:30:24;;;;;;;3.67;3.17;;;23.20;48.70;;;;;;5053638;28;20487;-62
2022/06/29 06:32:51;;;;;;;5.43;3.77;;;23.30;48.70;;;;;;5052802;28;20444;-62
2022/06/29 06:35:19;;;;;;;3.70;3.40;;;23.30;48.80;;;;;;5053933;28;20460;-62
2022/06/29 06:37:46;;;;;;;6.30;3.73;;;23.40;48.90;;;;;;5054163;28;20455;-62
2022/06/29 06:43:00;;;;;;;7.07;3.43;;;23.50;49.00;;;;;;5051993;28;20918;-62
2022/06/29 06:45:27;;;;;;;3.83;3.30;;;23.40;49.20;;;;;;5064827;28;20532;-61
2022/06/29 06:47:55;;;;;;;4.57;3.77;;;23.40;49.50;;;;;;5073455;28;20923;-66
2022/06/29 06:50:23;;;;;;;4.70;4.30;;;23.40;49.80;;;;;;5073206;28;20566;-63
2022/06/29 06:52:50;;;;;;;4.43;4.00;;;23.30;50.10;;;;;;5055428;28;20472;-61
2022/06/29 06:55:17;;;;;;;5.63;4.23;;;23.30;50.30;;;;;;5053363;28;20497;-62
2022/06/29 06:57:45;;;;;;;4.10;3.70;;;23.30;50.70;;;;;;5053015;28;20555;-62
2022/06/29 07:00:14;;;;;;;5.07;3.80;;;23.30;51.00;;;;;;5052915;28;20529;-62
2022/06/29 07:02:42;;;;;;;4.27;3.87;;;23.30;51.50;;;;;;5053587;28;20448;-62
2022/06/29 07:05:09;;;;;;;3.77;3.47;;;23.30;51.70;;;;;;5039693;28;20476;-61
2022/06/29 07:07:37;;;;;;;4.30;3.40;;;23.40;52.00;;;;;;5054374;28;20531;-62
2022/06/29 07:10:05;;;;;;;10.83;3.80;;;23.50;52.30;;;;;;5073369;28;20516;-62
2022/06/29 07:12:32;;;;;;;4.23;3.83;;;23.70;52.40;;;;;;5065497;28;20444;-62
2022/06/29 07:15:00;;;;;;;3.50;3.17;;;23.80;52.20;;;;;;5053498;28;20460;-61
2022/06/29 07:17:28;;;;;;;5.00;3.97;;;23.90;52.30;;;;;;5053582;28;20456;-61
2022/06/29 07:19:56;;;;;;;3.97;3.57;;;24.00;52.40;;;;;;5053970;28;20822;-62
2022/06/29 07:22:23;;;;;;;4.47;3.87;;;24.20;52.30;;;;;;5047859;28;20459;-61
2022/06/29 07:24:51;;;;;;;4.60;4.17;;;24.40;52.10;;;;;;5048797;28;20485;-61
2022/06/29 07:27:18;;;;;;;4.10;3.80;;;24.60;52.20;;;;;;5069562;28;20463;-62
2022/06/29 07:29:45;;;;;;;4.10;3.80;;;24.60;52.20;;;;;;5061533;28;21045;-62
2022/06/29 07:32:12;;;;;;;10.93;4.30;;;24.60;52.30;;;;;;5053173;28;20935;-62
2022/06/29 07:34:41;;;;;;;4.03;3.73;;;24.70;52.50;;;;;;5059933;28;20455;-63
2022/06/29 07:37:08;;;;;;;4.10;3.73;;;24.70;52.60;;;;;;5067634;28;20554;-62
2022/06/29 07:39:36;;;;;;;4.27;3.97;;;24.90;52.50;;;;;;5052789;28;20501;-63
2022/06/29 07:42:03;;;;;;;4.03;3.63;;;25.10;52.40;;;;;;5051682;28;20459;-62
2022/06/29 07:44:31;;;;;;;4.70;4.10;;;25.20;52.30;;;;;;5053465;28;20497;-61
2022/06/29 07:46:58;;;;;;;4.20;3.90;;;25.30;52.40;;;;;;5053537;28;20538;-61
2022/06/29 07:49:25;;;;;;;7.53;3.93;;;25.50;52.30;;;;;;5053229;28;20983;-62
2022/06/29 07:51:54;;;;;;;4.00;3.60;;;25.60;52.20;;;;;;5035166;28;20453;-63
2022/06/29 07:54:22;;;;;;;4.30;3.80;;;25.60;52.20;;;;;;5033973;28;20452;-62
2022/06/29 07:56:49;;;;;;;4.37;3.97;;;25.60;52.30;;;;;;5049023;28;20486;-63
2022/06/29 07:59:16;;;;;;;4.03;3.63;;;25.60;52.30;;;;;;5051007;28;20536;-63
2022/06/29 08:01:44;;;;;;;6.30;3.23;;;25.80;52.30;;;;;;5052922;28;20455;-63
2022/06/29 08:04:11;;;;;;;9.27;3.70;;;26.00;52.10;;;;;;5051799;28;20545;-63
2022/06/29 08:06:38;;;;;;;5.73;3.67;;;26.20;51.80;;;;;;5052624;28;20521;-62
2022/06/29 08:09:07;;;;;;;3.83;3.43;;;26.40;51.40;;;;;;5050786;28;20479;-64
2022/06/29 08:11:34;;;;;;;4.00;3.60;;;26.50;50.90;;;;;;5072310;28;20536;-62
2022/06/29 08:14:02;;;;;;;4.10;3.80;;;26.50;50.70;;;;;;5072598;28;20505;-64
2022/06/29 08:16:29;;;;;;;3.93;3.67;;;26.40;50.80;;;;;;5050051;28;20932;-61
2022/06/29 08:18:57;;;;;;;4.57;4.17;;;26.20;51.20;;;;;;5032764;28;20449;-62
2022/06/29 08:21:24;;;;;;;4.13;3.80;;;26.10;51.50;;;;;;5032960;28;20532;-63
2022/06/29 08:23:51;;;;;;;6.27;4.03;;;25.90;51.70;;;;;;5041567;28;20867;-62
2022/06/29 08:26:20;;;;;;;5.87;4.10;;;25.80;52.00;;;;;;5052103;28;20898;-63
2022/06/29 08:28:47;;;;;;;5.37;4.30;;;25.70;52.80;;;;;;5059645;28;20499;-62
2022/06/29 08:31:14;;;;;;;4.00;3.70;;;25.60;52.40;;;;;;5073985;28;20492;-63
2022/06/29 08:33:43;;;;;;;3.57;3.37;;;25.70;52.70;;;;;;5035627;28;20507;-63
2022/06/29 08:36:10;;;;;;;4.60;4.00;;;25.70;52.70;;;;;;5037331;28;20510;-64
2022/06/29 08:38:37;;;;;;;3.67;3.30;;;25.90;52.70;;;;;;5036883;28;20449;-64
2022/06/29 08:41:05;;;;;;;4.10;3.70;;;25.90;52.50;;;;;;5035167;28;20453;-63
2022/06/29 08:43:34;;;;;;;5.00;3.80;;;26.00;52.30;;;;;;5042293;28;20506;-64
2022/06/29 08:46:01;;;;;;;3.57;3.37;;;26.10;52.30;;;;;;5055109;28;20559;-65
2022/06/29 08:48:30;;;;;;;4.10;3.73;;;26.20;52.00;;;;;;5037732;28;20449;-65
2022/06/29 08:50:57;;;;;;;4.60;4.03;;;26.40;51.70;;;;;;5035686;28;20487;-65
2022/06/29 08:53:25;;;;;;;3.73;3.43;;;26.50;51.30;;;;;;5068637;28;20909;-64
2022/06/29 08:55:55;;;;;;;4.93;3.70;;;26.60;51.00;;;;;;5035772;28;20551;-64
2022/06/29 08:58:23;;;;;;;4.00;3.60;;;26.90;50.50;;;;;;5054043;28;20467;-64
2022/06/29 09:00:53;;;;;;;4.10;3.70;;;27.10;49.90;;;;;;5056856;28;20432;-64
2022/06/29 09:03:21;;;;;;;4.43;3.33;;;27.20;49.50;;;;;;5039244;28;20552;-64
2022/06/29 09:05:49;;;;;;;4.23;3.50;;;27.40;49.20;;;;;;5036430;28;20552;-63
2022/06/29 09:08:16;;;;;;;5.30;3.83;;;27.70;48.60;;;;;;5036002;28;20954;-63
2022/06/29 09:10:44;;;;;;;3.90;3.60;;;27.90;47.80;;;;;;5045131;28;20513;-63
2022/06/29 09:13:11;;;;;;;6.20;4.40;;;28.20;47.30;;;;;;5052214;28;20463;-63
2022/06/29 09:15:41;;;;;;;5.10;4.60;;;28.30;46.90;;;;;;5055550;28;20478;-64
2022/06/29 09:21:03;;;;;;;6.73;4.30;;;28.30;46.50;;;;;;5130328;27;20540;-64
2022/06/29 09:23:33;;;;;;;8.43;4.63;;;27.90;47.10;;;;;;5130863;28;20960;-65
2022/06/29 09:26:01;;;;;;;4.20;3.90;;;27.80;47.30;;;;;;5118179;28;20469;-65
2022/06/29 09:28:31;;;;;;;5.00;4.00;;;27.60;47.30;;;;;;5109754;28;20453;-66
2022/06/29 09:30:59;;;;;;;4.37;4.03;;;27.50;47.30;;;;;;5109962;28;20458;-65
2022/06/29 09:33:28;;;;;;;6.47;5.83;;;27.50;47.40;;;;;;5110715;28;20917;-64
2022/06/29 09:36:08;;;;;;;5.60;4.70;;;27.60;47.50;;;;;;5110033;28;20502;-64
2022/06/29 09:38:36;;;;;;;3.80;3.50;;;27.60;47.40;;;;;;5110456;28;20442;-64
2022/06/29 09:41:06;;;;;;;8.33;5.20;;;27.60;47.50;;;;;;5109925;28;20507;-62
2022/06/29 09:43:34;;;;;;;4.50;4.10;;;27.70;47.10;;;;;;5109746;28;20445;-64
2022/06/29 09:46:03;;;;;;;4.83;4.40;;;27.90;46.70;;;;;;5110117;28;20534;-64
2022/06/29 09:48:31;;;;;;;5.47;4.70;;;28.10;46.20;;;;;;5110754;28;20565;-63
2022/06/29 09:51:00;;;;;;;5.00;3.93;;;28.20;45.90;;;;;;5109188;28;20570;-63
2022/06/29 09:53:36;;;;;;;5.00;4.60;;;28.10;45.80;;;;;;5110351;28;20570;-65
2022/06/29 09:56:05;;;;;;;4.90;4.50;;;28.10;45.70;;;;;;5110266;28;20464;-63
2022/06/29 09:58:40;;;;;;;5.90;4.50;;;28.10;45.70;;;;;;5110270;28;20441;-63
2022/06/29 10:03:56;;;;;;;6.67;4.30;;;28.30;45.30;;;;;;5109276;28;20487;-62
2022/06/29 10:06:23;;;;;;;4.57;4.17;;;28.40;45.10;;;;;;5109479;28;20491;-65
2022/06/29 10:08:52;;;;;;;8.93;4.53;;;28.40;45.10;;;;;;5109681;28;20461;-66
2022/06/29 10:14:23;;;;;;;8.67;4.80;;;28.70;44.70;;;;;;5109145;28;20472;-64
2022/06/29 10:16:59;;;;;;;5.30;4.40;;;28.90;44.30;;;;;;5110567;28;20461;-66
2022/06/29 10:19:39;;;;;;;5.10;4.60;;;28.90;44.10;;;;;;5109543;28;20529;-64
2022/06/29 10:22:06;;;;;;;5.23;4.70;;;28.90;44.10;;;;;;5112622;28;20487;-63
2022/06/29 10:24:37;;;;;;;5.27;4.77;;;28.80;44.10;;;;;;5109637;28;20445;-63
2022/06/29 10:27:10;;;;;;;5.07;4.63;;;28.90;44.10;;;;;;5109143;28;20437;-64
2022/06/29 10:29:38;;;;;;;5.03;4.63;;;29.00;43.80;;;;;;5109019;28;20476;-64
2022/06/29 10:32:23;;;;;;;6.07;4.37;;;29.00;43.90;;;;;;5097617;28;20442;-65
2022/06/29 10:35:08;;;;;;;4.83;4.40;;;29.00;43.80;;;;;;5094624;28;20516;-65
2022/06/29 10:37:49;;;;;;;4.43;3.83;;;29.00;43.70;;;;;;5095799;28;20422;-65
2022/06/29 10:40:24;;;;;;;6.07;4.17;;;29.10;43.30;;;;;;5095626;28;20853;-64
2022/06/29 10:43:08;;;;;;;5.50;4.33;;;29.20;43.00;;;;;;5098627;28;20957;-65
2022/06/29 10:45:41;;;;;;;4.57;3.53;;;29.20;43.00;;;;;;5095507;28;20504;-66
2022/06/29 10:48:16;;;;;;;5.10;4.60;;;29.10;43.00;;;;;;5094795;28;20507;-65
2022/06/29 10:50:45;;;;;;;5.40;5.00;;;28.90;43.80;;;;;;5095337;28;20454;-66
2022/06/29 10:53:13;;;;;;;5.20;4.90;;;28.90;43.40;;;;;;5095492;28;20446;-65
2022/06/29 10:55:43;;;;;;;6.10;5.60;;;28.70;43.90;;;;;;5092602;28;20486;-65
2022/06/29 10:58:11;;;;;;;6.30;5.70;;;28.50;44.60;;;;;;5096242;28;20446;-64
2022/06/29 11:00:40;;;;;;;6.07;5.57;;;28.20;45.10;;;;;;5097556;28;21048;-64
2022/06/29 11:03:10;;;;;;;6.00;5.60;;;28.10;45.70;;;;;;5094891;28;20899;-65
2022/06/29 11:12:01;;;;;;;6.43;5.80;;;28.00;46.00;;;;;;5094104;28;20474;-65
2022/06/29 11:13:58;;;;;;;7.00;6.40;;;27.60;46.60;;;;;;5094895;28;20901;-64
2022/06/29 11:16:35;;;;;;;7.97;6.17;;;27.60;46.90;;;;;;5094378;28;20465;-64
2022/06/29 11:19:03;;;;;;;6.73;6.07;;;27.70;47.20;;;;;;5094793;28;20528;-64
2022/06/29 11:21:30;;;;;;;7.33;6.40;;;27.60;47.40;;;;;;5095436;28;20490;-63
2022/06/29 11:24:02;;;;;;;6.57;5.97;;;27.70;47.80;;;;;;5096245;28;20497;-63
2022/06/29 11:26:32;;;;;;;6.93;6.27;;;27.80;47.90;;;;;;5095899;28;20535;-64
2022/06/29 11:29:00;;;;;;;9.20;8.50;;;27.80;48.00;;;;;;5096123;28;20586;-64
2022/06/29 11:31:28;;;;;;;6.77;6.17;;;27.90;48.10;;;;;;5096107;28;20442;-64
2022/06/29 11:33:56;;;;;;;7.53;7.03;;;27.80;48.40;;;;;;5094092;28;20453;-64
2022/06/29 11:36:27;;;;;;;7.57;7.00;;;27.70;48.80;;;;;;5094630;28;20505;-64
2022/06/29 11:38:55;;;;;;;7.67;6.83;;;27.70;49.20;;;;;;5095665;28;20458;-65
2022/06/29 11:41:25;;;;;;;5.73;5.23;;;27.70;49.40;;;;;;5097993;28;20533;-64
2022/06/29 11:44:02;;;;;;;6.67;6.10;;;27.70;49.60;;;;;;5095958;28;20470;-65
2022/06/29 11:46:31;;;;;;;6.00;5.50;;;27.80;49.60;;;;;;5096671;28;20535;-65
2022/06/29 11:51:54;;;;;;;6.93;4.63;;;28.50;48.90;;;;;;5096313;28;20397;-64
2022/06/29 11:54:36;;;;;;;4.90;4.40;;;29.00;47.80;;;;;;5093769;28;20464;-64
2022/06/29 11:57:10;;;;;;;4.70;4.20;;;29.40;46.50;;;;;;5094489;28;20845;-64
2022/06/29 11:59:40;;;;;;;4.87;4.47;;;29.90;44.90;;;;;;5094561;28;20515;-64
2022/06/29 12:02:08;;;;;;;7.30;4.03;;;30.40;43.70;;;;;;5093123;28;20533;-64
2022/06/29 12:04:37;;;;;;;3.70;3.40;;;30.40;42.90;;;;;;5093156;28;20482;-63
2022/06/29 12:07:09;;;;;;;4.33;3.90;;;30.20;42.30;;;;;;5093759;28;20486;-63
2022/06/29 12:09:38;;;;;;;3.97;3.57;;;30.00;42.20;;;;;;5093327;28;20491;-63
2022/06/29 12:12:06;;;;;;;3.30;3.00;;;29.60;42.40;;;;;;5093540;28;20452;-64
2022/06/29 12:14:33;;;;;;;4.10;3.80;;;29.50;42.40;;;;;;5093867;28;20510;-63
2022/06/29 12:17:03;;;;;;;5.13;3.50;;;29.50;42.50;;;;;;5092436;28;20522;-63
2022/06/29 12:19:30;;;;;;;4.00;3.40;;;29.90;42.10;;;;;;5072982;28;20828;-64
2022/06/29 12:21:58;;;;;;;4.30;3.97;;;30.20;41.80;;;;;;5073314;28;20451;-63
2022/06/29 12:24:27;;;;;;;6.63;4.37;;;30.40;41.70;;;;;;5083100;28;20457;-65
2022/06/29 12:26:54;;;;;;;4.37;3.97;;;30.40;41.50;;;;;;5093686;28;20469;-65
2022/06/29 12:29:22;;;;;;;4.13;3.73;;;30.50;41.40;;;;;;5097720;28;20801;-63
2022/06/29 12:31:49;;;;;;;3.93;3.47;;;30.80;41.10;;;;;;5093229;28;20453;-62
2022/06/29 12:34:18;;;;;;;3.40;3.10;;;31.40;40.30;;;;;;5092965;28;20465;-62
2022/06/29 12:36:46;;;;;;;4.13;3.10;;;31.70;39.30;;;;;;5093569;28;20458;-64
2022/06/29 12:39:13;;;;;;;3.47;3.27;;;31.80;39.20;;;;;;5094072;28;20517;-63
2022/06/29 12:41:40;;;;;;;4.10;3.70;;;31.80;39.20;;;;;;5095713;28;20478;-61
2022/06/29 12:44:09;;;;;;;4.07;3.33;;;31.90;39.30;;;;;;5093044;28;20442;-63
2022/06/29 12:46:39;;;;;;;5.00;3.70;;;31.70;39.40;;;;;;5092104;28;20509;-63
2022/06/29 12:49:06;;;;;;;3.40;3.07;;;31.30;39.90;;;;;;5093070;28;20496;-62
2022/06/29 12:51:35;;;;;;;4.30;3.90;;;30.80;40.70;;;;;;5094040;28;20499;-62
2022/06/29 12:54:02;;;;;;;3.87;2.60;;;30.50;41.20;;;;;;5093129;28;20854;-64
2022/06/29 12:56:30;;;;;;;3.17;2.20;;;30.20;41.30;;;;;;5093301;28;20512;-64
2022/06/29 12:58:57;;;;;;;2.87;2.53;;;29.80;40.20;;;;;;5092987;28;20446;-63
2022/06/29 13:01:24;;;;;;;3.60;2.70;;;29.20;40.00;;;;;;5093354;28;20470;-61
2022/06/29 13:03:52;;;;;;;2.70;2.30;;;28.90;40.30;;;;;;5093682;28;20453;-62
2022/06/29 13:06:19;;;;;;;2.40;2.20;;;28.70;40.40;;;;;;5093588;28;20463;-62
2022/06/29 13:08:48;;;;;;;2.50;2.20;;;28.50;40.40;;;;;;5093540;28;20446;-63
2022/06/29 13:11:15;;;;;;;2.63;2.43;;;28.50;40.40;;;;;;5092551;28;20442;-63
2022/06/29 13:13:42;;;;;;;2.40;2.20;;;28.50;40.30;;;;;;5093083;28;20438;-63
2022/06/29 13:16:10;;;;;;;3.40;2.67;;;28.40;40.20;;;;;;5092966;28;20868;-61
2022/06/29 13:18:37;;;;;;;2.47;2.30;;;28.50;40.40;;;;;;5092807;28;20525;-63